sensor_id;sensor_type;location;lat;lon;timestamp;P1;durP1;ratioP1;P2;durP2;ratioP2
21270;SDS011;10795;50.796;3.860;2022-07-29T00:02:25;4.43;;;1.55;;
21270;SDS011;10795;50.796;3.860;2022-07-29T00:04:51;7.97;;;1.65;;
21270;SDS011;10795;50.796;3.860;2022-07-29T00:07:17;5.05;;;1.38;;
21270;SDS011;10795;50.796;3.860;2022-07-29T00:09:43;5.05;;;1.70;;
21270;SDS011;10795;50.796;3.860;2022-07-29T00:12:09;3.92;;;1.73;;
21270;SDS011;10795;50.796;3.860;2022-07-29T00:14:34;2.13;;;1.55;;
21270;SDS011;10795;50.796;3.860;2022-07-29T00:17:00;3.63;;;1.60;;
21270;SDS011;10795;50.796;3.860;2022-07-29T00:19:26;4.30;;;1.42;;
21270;SDS011;10795;50.796;3.860;2022-07-29T00:21:52;8.63;;;2.05;;
21270;SDS011;10795;50.796;3.860;2022-07-29T00:24:17;5.05;;;1.75;;
21270;SDS011;10795;50.796;3.860;2022-07-29T00:26:43;5.82;;;2.22;;
21270;SDS011;10795;50.796;3.860;2022-07-29T00:29:09;5.43;;;1.73;;
21270;SDS011;10795;50.796;3.860;2022-07-29T00:31:35;5.43;;;1.70;;
21270;SDS011;10795;50.796;3.860;2022-07-29T00:34:01;4.95;;;1.45;;
21270;SDS011;10795;50.796;3.860;2022-07-29T00:36:27;5.82;;;1.75;;
21270;SDS011;10795;50.796;3.860;2022-07-29T00:38:53;3.88;;;1.40;;
21270;SDS011;10795;50.796;3.860;2022-07-29T00:41:19;7.05;;;2.10;;
21270;SDS011;10795;50.796;3.860;2022-07-29T00:43:45;4.13;;;1.33;;
21270;SDS011;10795;50.796;3.860;2022-07-29T00:46:11;2.28;;;1.52;;
21270;SDS011;10795;50.796;3.860;2022-07-29T00:48:37;4.55;;;2.22;;
21270;SDS011;10795;50.796;3.860;2022-07-29T00:51:04;1.95;;;1.60;;
21270;SDS011;10795;50.796;3.860;2022-07-29T00:53:30;4.85;;;1.83;;
21270;SDS011;10795;50.796;3.860;2022-07-29T00:55:57;3.65;;;1.67;;
21270;SDS011;10795;50.796;3.860;2022-07-29T00:58:24;5.68;;;1.83;;
21270;SDS011;10795;50.796;3.860;2022-07-29T01:00:51;7.10;;;1.92;;
21270;SDS011;10795;50.796;3.860;2022-07-29T01:03:17;3.83;;;1.65;;
21270;SDS011;10795;50.796;3.860;2022-07-29T01:05:44;2.75;;;1.42;;
21270;SDS011;10795;50.796;3.860;2022-07-29T01:08:11;3.38;;;1.98;;
21270;SDS011;10795;50.796;3.860;2022-07-29T01:10:39;2.85;;;1.63;;
21270;SDS011;10795;50.796;3.860;2022-07-29T01:13:06;5.15;;;1.80;;
21270;SDS011;10795;50.796;3.860;2022-07-29T01:15:33;4.13;;;1.77;;
21270;SDS011;10795;50.796;3.860;2022-07-29T01:18:05;4.82;;;1.90;;
21270;SDS011;10795;50.796;3.860;2022-07-29T01:31:56;4.95;;;1.88;;
21270;SDS011;10795;50.796;3.860;2022-07-29T01:34:24;3.15;;;2.10;;
21270;SDS011;10795;50.796;3.860;2022-07-29T01:37:08;2.30;;;2.05;;
21270;SDS011;10795;50.796;3.860;2022-07-29T01:39:35;4.45;;;1.85;;
21270;SDS011;10795;50.796;3.860;2022-07-29T01:42:19;3.83;;;2.10;;
21270;SDS011;10795;50.796;3.860;2022-07-29T01:48:02;4.85;;;2.45;;
21270;SDS011;10795;50.796;3.860;2022-07-29T01:50:35;7.00;;;2.15;;
21270;SDS011;10795;50.796;3.860;2022-07-29T01:53:06;6.47;;;2.47;;
21270;SDS011;10795;50.796;3.860;2022-07-29T01:55:35;8.32;;;2.30;;
21270;SDS011;10795;50.796;3.860;2022-07-29T01:58:04;3.42;;;2.35;;
21270;SDS011;10795;50.796;3.860;2022-07-29T02:00:32;4.18;;;2.50;;
21270;SDS011;10795;50.796;3.860;2022-07-29T02:03:00;5.22;;;2.13;;
21270;SDS011;10795;50.796;3.860;2022-07-29T02:05:30;3.13;;;2.38;;
21270;SDS011;10795;50.796;3.860;2022-07-29T02:07:58;3.78;;;2.70;;
21270;SDS011;10795;50.796;3.860;2022-07-29T02:10:27;5.47;;;2.47;;
21270;SDS011;10795;50.796;3.860;2022-07-29T02:12:55;11.02;;;2.55;;
21270;SDS011;10795;50.796;3.860;2022-07-29T02:15:26;4.30;;;2.60;;
21270;SDS011;10795;50.796;3.860;2022-07-29T02:17:56;4.40;;;2.70;;
21270;SDS011;10795;50.796;3.860;2022-07-29T02:20:26;6.93;;;2.80;;
21270;SDS011;10795;50.796;3.860;2022-07-29T02:22:54;4.80;;;2.28;;
21270;SDS011;10795;50.796;3.860;2022-07-29T02:25:21;7.97;;;2.85;;
21270;SDS011;10795;50.796;3.860;2022-07-29T02:27:49;4.47;;;2.80;;
21270;SDS011;10795;50.796;3.860;2022-07-29T02:30:16;4.40;;;2.67;;
21270;SDS011;10795;50.796;3.860;2022-07-29T02:32:43;4.55;;;2.80;;
21270;SDS011;10795;50.796;3.860;2022-07-29T02:35:12;4.82;;;2.65;;
21270;SDS011;10795;50.796;3.860;2022-07-29T02:37:41;4.63;;;3.05;;
21270;SDS011;10795;50.796;3.860;2022-07-29T02:40:10;4.88;;;2.70;;
21270;SDS011;10795;50.796;3.860;2022-07-29T02:42:40;6.13;;;3.10;;
21270;SDS011;10795;50.796;3.860;2022-07-29T02:45:09;5.35;;;3.50;;
21270;SDS011;10795;50.796;3.860;2022-07-29T02:47:42;7.25;;;3.22;;
21270;SDS011;10795;50.796;3.860;2022-07-29T02:50:13;6.35;;;2.95;;
21270;SDS011;10795;50.796;3.860;2022-07-29T02:52:52;5.05;;;3.30;;
21270;SDS011;10795;50.796;3.860;2022-07-29T02:55:32;3.92;;;2.92;;
21270;SDS011;10795;50.796;3.860;2022-07-29T03:00:31;6.45;;;3.20;;
21270;SDS011;10795;50.796;3.860;2022-07-29T03:03:01;5.22;;;3.05;;
21270;SDS011;10795;50.796;3.860;2022-07-29T03:05:32;5.15;;;3.35;;
21270;SDS011;10795;50.796;3.860;2022-07-29T03:08:01;7.35;;;3.47;;
21270;SDS011;10795;50.796;3.860;2022-07-29T03:10:29;7.03;;;3.17;;
21270;SDS011;10795;50.796;3.860;2022-07-29T03:12:56;9.95;;;3.30;;
21270;SDS011;10795;50.796;3.860;2022-07-29T03:15:22;7.05;;;3.63;;
21270;SDS011;10795;50.796;3.860;2022-07-29T03:17:49;5.95;;;3.33;;
21270;SDS011;10795;50.796;3.860;2022-07-29T03:20:16;3.85;;;2.80;;
21270;SDS011;10795;50.796;3.860;2022-07-29T03:22:43;4.82;;;3.33;;
21270;SDS011;10795;50.796;3.860;2022-07-29T03:25:15;6.33;;;3.30;;
21270;SDS011;10795;50.796;3.860;2022-07-29T03:27:42;6.72;;;3.50;;
21270;SDS011;10795;50.796;3.860;2022-07-29T03:30:08;6.20;;;2.90;;
21270;SDS011;10795;50.796;3.860;2022-07-29T03:32:35;6.00;;;3.10;;
21270;SDS011;10795;50.796;3.860;2022-07-29T03:35:01;3.30;;;2.58;;
21270;SDS011;10795;50.796;3.860;2022-07-29T03:37:28;7.93;;;2.70;;
21270;SDS011;10795;50.796;3.860;2022-07-29T03:39:56;4.72;;;2.75;;
21270;SDS011;10795;50.796;3.860;2022-07-29T03:42:24;14.75;;;2.90;;
21270;SDS011;10795;50.796;3.860;2022-07-29T03:44:57;6.80;;;3.50;;
21270;SDS011;10795;50.796;3.860;2022-07-29T03:47:25;8.55;;;3.47;;
21270;SDS011;10795;50.796;3.860;2022-07-29T03:49:54;4.23;;;3.60;;
21270;SDS011;10795;50.796;3.860;2022-07-29T03:52:25;6.50;;;3.50;;
21270;SDS011;10795;50.796;3.860;2022-07-29T03:54:51;4.78;;;3.63;;
21270;SDS011;10795;50.796;3.860;2022-07-29T03:57:18;4.43;;;2.92;;
21270;SDS011;10795;50.796;3.860;2022-07-29T03:59:49;8.43;;;2.92;;
21270;SDS011;10795;50.796;3.860;2022-07-29T04:02:16;7.78;;;3.58;;
21270;SDS011;10795;50.796;3.860;2022-07-29T04:04:42;4.18;;;3.45;;
21270;SDS011;10795;50.796;3.860;2022-07-29T04:07:09;4.78;;;3.80;;
21270;SDS011;10795;50.796;3.860;2022-07-29T04:09:40;6.35;;;3.67;;
21270;SDS011;10795;50.796;3.860;2022-07-29T04:12:06;5.00;;;3.58;;
21270;SDS011;10795;50.796;3.860;2022-07-29T04:14:33;16.33;;;4.25;;
21270;SDS011;10795;50.796;3.860;2022-07-29T04:17:00;9.25;;;4.05;;
21270;SDS011;10795;50.796;3.860;2022-07-29T04:19:27;7.85;;;3.90;;
21270;SDS011;10795;50.796;3.860;2022-07-29T04:21:52;5.65;;;3.88;;
21270;SDS011;10795;50.796;3.860;2022-07-29T04:24:18;7.70;;;3.95;;
21270;SDS011;10795;50.796;3.860;2022-07-29T04:26:47;8.75;;;4.35;;
21270;SDS011;10795;50.796;3.860;2022-07-29T04:29:13;8.57;;;3.87;;
21270;SDS011;10795;50.796;3.860;2022-07-29T04:31:43;5.07;;;3.72;;
21270;SDS011;10795;50.796;3.860;2022-07-29T04:34:09;6.68;;;3.75;;
21270;SDS011;10795;50.796;3.860;2022-07-29T04:36:35;5.35;;;3.63;;
21270;SDS011;10795;50.796;3.860;2022-07-29T04:39:01;6.63;;;4.68;;
21270;SDS011;10795;50.796;3.860;2022-07-29T04:41:27;5.18;;;3.80;;
21270;SDS011;10795;50.796;3.860;2022-07-29T04:43:53;5.78;;;3.42;;
21270;SDS011;10795;50.796;3.860;2022-07-29T04:46:19;5.82;;;3.90;;
21270;SDS011;10795;50.796;3.860;2022-07-29T04:48:45;5.82;;;4.00;;
21270;SDS011;10795;50.796;3.860;2022-07-29T04:51:12;6.55;;;3.75;;
21270;SDS011;10795;50.796;3.860;2022-07-29T04:53:42;10.63;;;3.90;;
21270;SDS011;10795;50.796;3.860;2022-07-29T04:56:07;6.90;;;4.05;;
21270;SDS011;10795;50.796;3.860;2022-07-29T04:58:34;5.65;;;3.90;;
21270;SDS011;10795;50.796;3.860;2022-07-29T05:01:00;6.65;;;3.85;;
21270;SDS011;10795;50.796;3.860;2022-07-29T05:03:26;6.93;;;3.63;;
21270;SDS011;10795;50.796;3.860;2022-07-29T05:05:51;8.95;;;3.50;;
21270;SDS011;10795;50.796;3.860;2022-07-29T05:08:17;5.82;;;3.33;;
21270;SDS011;10795;50.796;3.860;2022-07-29T05:10:43;5.38;;;3.25;;
21270;SDS011;10795;50.796;3.860;2022-07-29T05:13:09;6.10;;;3.22;;
21270;SDS011;10795;50.796;3.860;2022-07-29T05:15:35;6.43;;;3.83;;
21270;SDS011;10795;50.796;3.860;2022-07-29T05:18:01;5.57;;;3.50;;
21270;SDS011;10795;50.796;3.860;2022-07-29T05:20:27;3.85;;;3.45;;
21270;SDS011;10795;50.796;3.860;2022-07-29T05:22:58;5.72;;;3.60;;
21270;SDS011;10795;50.796;3.860;2022-07-29T05:25:28;7.97;;;3.90;;
21270;SDS011;10795;50.796;3.860;2022-07-29T05:27:55;8.60;;;4.30;;
21270;SDS011;10795;50.796;3.860;2022-07-29T05:30:21;6.30;;;3.70;;
21270;SDS011;10795;50.796;3.860;2022-07-29T05:32:47;6.18;;;3.35;;
21270;SDS011;10795;50.796;3.860;2022-07-29T05:35:13;6.47;;;4.07;;
21270;SDS011;10795;50.796;3.860;2022-07-29T05:37:40;7.45;;;3.90;;
21270;SDS011;10795;50.796;3.860;2022-07-29T05:40:06;7.30;;;4.07;;
21270;SDS011;10795;50.796;3.860;2022-07-29T05:42:32;7.50;;;3.90;;
21270;SDS011;10795;50.796;3.860;2022-07-29T05:44:59;10.52;;;4.20;;
21270;SDS011;10795;50.796;3.860;2022-07-29T05:47:25;8.57;;;4.03;;
21270;SDS011;10795;50.796;3.860;2022-07-29T05:49:50;2.17;;;1.80;;
21270;SDS011;10795;50.796;3.860;2022-07-29T05:52:18;5.68;;;3.13;;
21270;SDS011;10795;50.796;3.860;2022-07-29T05:54:44;5.85;;;3.63;;
21270;SDS011;10795;50.796;3.860;2022-07-29T05:57:16;4.32;;;3.72;;
21270;SDS011;10795;50.796;3.860;2022-07-29T05:59:46;4.07;;;2.00;;
21270;SDS011;10795;50.796;3.860;2022-07-29T06:02:13;2.70;;;2.25;;
21270;SDS011;10795;50.796;3.860;2022-07-29T06:04:39;2.38;;;1.80;;
21270;SDS011;10795;50.796;3.860;2022-07-29T06:07:04;4.18;;;1.95;;
21270;SDS011;10795;50.796;3.860;2022-07-29T06:09:31;2.33;;;1.77;;
21270;SDS011;10795;50.796;3.860;2022-07-29T06:11:57;4.93;;;3.05;;
21270;SDS011;10795;50.796;3.860;2022-07-29T06:14:23;9.63;;;4.05;;
21270;SDS011;10795;50.796;3.860;2022-07-29T06:16:49;4.03;;;2.58;;
21270;SDS011;10795;50.796;3.860;2022-07-29T06:19:15;5.40;;;2.45;;
21270;SDS011;10795;50.796;3.860;2022-07-29T06:21:44;6.68;;;3.10;;
21270;SDS011;10795;50.796;3.860;2022-07-29T06:24:11;7.82;;;2.97;;
21270;SDS011;10795;50.796;3.860;2022-07-29T06:26:41;3.75;;;2.17;;
21270;SDS011;10795;50.796;3.860;2022-07-29T06:29:07;7.47;;;3.55;;
21270;SDS011;10795;50.796;3.860;2022-07-29T06:31:35;5.75;;;3.17;;
21270;SDS011;10795;50.796;3.860;2022-07-29T06:34:01;9.77;;;3.53;;
21270;SDS011;10795;50.796;3.860;2022-07-29T06:36:27;8.20;;;3.38;;
21270;SDS011;10795;50.796;3.860;2022-07-29T06:38:53;3.70;;;2.30;;
21270;SDS011;10795;50.796;3.860;2022-07-29T06:41:19;4.60;;;2.95;;
21270;SDS011;10795;50.796;3.860;2022-07-29T06:43:45;7.43;;;3.33;;
21270;SDS011;10795;50.796;3.860;2022-07-29T06:46:11;3.22;;;2.92;;
21270;SDS011;10795;50.796;3.860;2022-07-29T06:48:39;4.05;;;2.67;;
21270;SDS011;10795;50.796;3.860;2022-07-29T06:51:07;3.63;;;2.65;;
21270;SDS011;10795;50.796;3.860;2022-07-29T06:53:33;2.20;;;1.55;;
21270;SDS011;10795;50.796;3.860;2022-07-29T06:56:00;9.38;;;3.30;;
21270;SDS011;10795;50.796;3.860;2022-07-29T06:58:27;7.30;;;3.35;;
21270;SDS011;10795;50.796;3.860;2022-07-29T07:00:53;1.83;;;1.60;;
21270;SDS011;10795;50.796;3.860;2022-07-29T07:03:20;6.53;;;3.67;;
21270;SDS011;10795;50.796;3.860;2022-07-29T07:05:47;5.00;;;2.50;;
21270;SDS011;10795;50.796;3.860;2022-07-29T07:08:13;4.10;;;2.95;;
21270;SDS011;10795;50.796;3.860;2022-07-29T07:10:41;5.63;;;3.05;;
21270;SDS011;10795;50.796;3.860;2022-07-29T07:13:08;7.40;;;3.25;;
21270;SDS011;10795;50.796;3.860;2022-07-29T07:15:35;2.88;;;2.60;;
21270;SDS011;10795;50.796;3.860;2022-07-29T07:18:01;4.45;;;2.58;;
21270;SDS011;10795;50.796;3.860;2022-07-29T07:20:27;2.88;;;2.08;;
21270;SDS011;10795;50.796;3.860;2022-07-29T07:22:53;5.30;;;2.13;;
21270;SDS011;10795;50.796;3.860;2022-07-29T07:25:19;3.13;;;2.30;;
21270;SDS011;10795;50.796;3.860;2022-07-29T07:27:45;4.15;;;3.13;;
21270;SDS011;10795;50.796;3.860;2022-07-29T07:30:13;2.17;;;1.98;;
21270;SDS011;10795;50.796;3.860;2022-07-29T07:32:39;3.38;;;2.38;;
21270;SDS011;10795;50.796;3.860;2022-07-29T07:35:06;4.53;;;3.38;;
21270;SDS011;10795;50.796;3.860;2022-07-29T07:37:32;3.25;;;1.58;;
21270;SDS011;10795;50.796;3.860;2022-07-29T07:39:58;2.10;;;1.50;;
21270;SDS011;10795;50.796;3.860;2022-07-29T07:42:24;5.03;;;2.90;;
21270;SDS011;10795;50.796;3.860;2022-07-29T07:44:50;3.63;;;2.50;;
21270;SDS011;10795;50.796;3.860;2022-07-29T07:47:16;5.15;;;3.20;;
21270;SDS011;10795;50.796;3.860;2022-07-29T07:49:46;9.77;;;3.55;;
21270;SDS011;10795;50.796;3.860;2022-07-29T07:52:12;2.40;;;1.77;;
21270;SDS011;10795;50.796;3.860;2022-07-29T07:54:39;6.32;;;1.98;;
21270;SDS011;10795;50.796;3.860;2022-07-29T07:57:05;4.32;;;2.55;;
21270;SDS011;10795;50.796;3.860;2022-07-29T07:59:31;3.65;;;1.92;;
21270;SDS011;10795;50.796;3.860;2022-07-29T08:01:57;4.88;;;3.20;;
21270;SDS011;10795;50.796;3.860;2022-07-29T08:04:23;4.00;;;2.42;;
21270;SDS011;10795;50.796;3.860;2022-07-29T08:06:49;6.55;;;3.30;;
21270;SDS011;10795;50.796;3.860;2022-07-29T08:09:15;3.33;;;1.58;;
21270;SDS011;10795;50.796;3.860;2022-07-29T08:11:41;2.67;;;1.40;;
21270;SDS011;10795;50.796;3.860;2022-07-29T08:14:07;4.43;;;2.03;;
21270;SDS011;10795;50.796;3.860;2022-07-29T08:16:33;6.22;;;3.40;;
21270;SDS011;10795;50.796;3.860;2022-07-29T08:18:58;2.13;;;1.58;;
21270;SDS011;10795;50.796;3.860;2022-07-29T08:21:24;4.70;;;3.08;;
21270;SDS011;10795;50.796;3.860;2022-07-29T08:23:50;3.10;;;1.42;;
21270;SDS011;10795;50.796;3.860;2022-07-29T08:26:40;2.00;;;1.33;;
21270;SDS011;10795;50.796;3.860;2022-07-29T08:29:07;3.20;;;2.05;;
21270;SDS011;10795;50.796;3.860;2022-07-29T08:31:32;5.75;;;2.80;;
21270;SDS011;10795;50.796;3.860;2022-07-29T08:33:58;5.72;;;3.15;;
21270;SDS011;10795;50.796;3.860;2022-07-29T08:36:25;5.00;;;3.00;;
21270;SDS011;10795;50.796;3.860;2022-07-29T08:38:51;5.53;;;3.55;;
21270;SDS011;10795;50.796;3.860;2022-07-29T08:41:20;3.42;;;2.20;;
21270;SDS011;10795;50.796;3.860;2022-07-29T08:43:47;2.38;;;1.90;;
21270;SDS011;10795;50.796;3.860;2022-07-29T08:46:14;3.97;;;1.58;;
21270;SDS011;10795;50.796;3.860;2022-07-29T08:48:42;6.78;;;2.60;;
21270;SDS011;10795;50.796;3.860;2022-07-29T08:51:08;3.58;;;2.10;;
21270;SDS011;10795;50.796;3.860;2022-07-29T08:53:40;4.38;;;1.83;;
21270;SDS011;10795;50.796;3.860;2022-07-29T08:56:08;1.83;;;1.08;;
21270;SDS011;10795;50.796;3.860;2022-07-29T08:58:38;1.45;;;1.10;;
21270;SDS011;10795;50.796;3.860;2022-07-29T09:01:04;6.18;;;2.30;;
21270;SDS011;10795;50.796;3.860;2022-07-29T09:03:31;4.72;;;2.15;;
21270;SDS011;10795;50.796;3.860;2022-07-29T09:05:59;2.50;;;1.10;;
21270;SDS011;10795;50.796;3.860;2022-07-29T09:08:26;4.70;;;1.95;;
21270;SDS011;10795;50.796;3.860;2022-07-29T09:10:53;4.93;;;2.13;;
21270;SDS011;10795;50.796;3.860;2022-07-29T09:13:21;3.58;;;2.10;;
21270;SDS011;10795;50.796;3.860;2022-07-29T09:15:47;4.03;;;2.05;;
21270;SDS011;10795;50.796;3.860;2022-07-29T09:21:09;4.97;;;1.90;;
21270;SDS011;10795;50.796;3.860;2022-07-29T09:24:02;5.05;;;1.95;;
21270;SDS011;10795;50.796;3.860;2022-07-29T09:26:31;3.08;;;1.75;;
21270;SDS011;10795;50.796;3.860;2022-07-29T09:28:58;3.47;;;1.58;;
21270;SDS011;10795;50.796;3.860;2022-07-29T09:31:34;0.90;;;0.80;;
21270;SDS011;10795;50.796;3.860;2022-07-29T09:34:02;4.40;;;2.28;;
21270;SDS011;10795;50.796;3.860;2022-07-29T09:36:29;3.28;;;1.40;;
21270;SDS011;10795;50.796;3.860;2022-07-29T09:38:59;3.00;;;1.48;;
21270;SDS011;10795;50.796;3.860;2022-07-29T09:41:26;5.20;;;1.60;;
21270;SDS011;10795;50.796;3.860;2022-07-29T09:43:53;3.25;;;1.15;;
21270;SDS011;10795;50.796;3.860;2022-07-29T09:46:20;4.13;;;1.80;;
21270;SDS011;10795;50.796;3.860;2022-07-29T09:48:45;4.57;;;1.45;;
21270;SDS011;10795;50.796;3.860;2022-07-29T09:51:38;6.00;;;2.47;;
21270;SDS011;10795;50.796;3.860;2022-07-29T09:56:49;9.38;;;3.35;;
21270;SDS011;10795;50.796;3.860;2022-07-29T09:59:19;3.70;;;1.67;;
21270;SDS011;10795;50.796;3.860;2022-07-29T10:01:48;1.75;;;1.40;;
21270;SDS011;10795;50.796;3.860;2022-07-29T10:04:15;2.35;;;1.63;;
21270;SDS011;10795;50.796;3.860;2022-07-29T10:07:14;3.08;;;1.17;;
21270;SDS011;10795;50.796;3.860;2022-07-29T10:09:34;5.75;;;3.13;;
21270;SDS011;10795;50.796;3.860;2022-07-29T10:14:30;4.88;;;2.58;;
21270;SDS011;10795;50.796;3.860;2022-07-29T10:17:00;2.42;;;2.20;;
21270;SDS011;10795;50.796;3.860;2022-07-29T10:19:30;5.63;;;2.70;;
21270;SDS011;10795;50.796;3.860;2022-07-29T10:22:00;5.07;;;3.05;;
21270;SDS011;10795;50.796;3.860;2022-07-29T10:24:29;2.58;;;2.03;;
21270;SDS011;10795;50.796;3.860;2022-07-29T10:26:56;4.55;;;2.72;;
21270;SDS011;10795;50.796;3.860;2022-07-29T10:29:23;6.60;;;3.03;;
21270;SDS011;10795;50.796;3.860;2022-07-29T10:43:50;2.42;;;1.50;;
21270;SDS011;10795;50.796;3.860;2022-07-29T10:46:27;1.70;;;1.60;;
21270;SDS011;10795;50.796;3.860;2022-07-29T10:54:16;4.38;;;2.22;;
21270;SDS011;10795;50.796;3.860;2022-07-29T10:56:42;3.83;;;2.30;;
21270;SDS011;10795;50.796;3.860;2022-07-29T11:01:44;6.90;;;2.70;;
21270;SDS011;10795;50.796;3.860;2022-07-29T11:04:15;4.28;;;2.00;;
21270;SDS011;10795;50.796;3.860;2022-07-29T11:07:26;5.63;;;2.85;;
21270;SDS011;10795;50.796;3.860;2022-07-29T11:09:29;10.20;;;3.45;;
21270;SDS011;10795;50.796;3.860;2022-07-29T11:11:55;8.50;;;2.78;;
21270;SDS011;10795;50.796;3.860;2022-07-29T11:15:08;6.97;;;2.72;;
21270;SDS011;10795;50.796;3.860;2022-07-29T11:17:17;4.68;;;2.38;;
21270;SDS011;10795;50.796;3.860;2022-07-29T11:19:42;2.63;;;1.77;;
21270;SDS011;10795;50.796;3.860;2022-07-29T11:22:09;4.50;;;2.33;;
21270;SDS011;10795;50.796;3.860;2022-07-29T11:24:36;9.52;;;3.00;;
21270;SDS011;10795;50.796;3.860;2022-07-29T11:27:06;9.13;;;2.90;;
21270;SDS011;10795;50.796;3.860;2022-07-29T11:29:32;1.50;;;1.08;;
21270;SDS011;10795;50.796;3.860;2022-07-29T11:32:13;4.45;;;2.78;;
21270;SDS011;10795;50.796;3.860;2022-07-29T11:34:40;7.28;;;2.55;;
21270;SDS011;10795;50.796;3.860;2022-07-29T11:39:39;4.90;;;3.28;;
21270;SDS011;10795;50.796;3.860;2022-07-29T11:45:00;5.38;;;2.67;;
21270;SDS011;10795;50.796;3.860;2022-07-29T11:47:49;2.42;;;1.63;;
21270;SDS011;10795;50.796;3.860;2022-07-29T11:52:53;5.38;;;1.80;;
21270;SDS011;10795;50.796;3.860;2022-07-29T11:55:20;3.97;;;1.42;;
21270;SDS011;10795;50.796;3.860;2022-07-29T11:57:51;5.43;;;2.65;;
21270;SDS011;10795;50.796;3.860;2022-07-29T12:02:56;6.47;;;2.85;;
21270;SDS011;10795;50.796;3.860;2022-07-29T12:05:34;3.35;;;1.40;;
21270;SDS011;10795;50.796;3.860;2022-07-29T12:08:12;6.83;;;2.67;;
21270;SDS011;10795;50.796;3.860;2022-07-29T12:10:39;11.15;;;3.53;;
21270;SDS011;10795;50.796;3.860;2022-07-29T12:13:06;3.35;;;1.75;;
21270;SDS011;10795;50.796;3.860;2022-07-29T12:15:32;4.85;;;2.00;;
21270;SDS011;10795;50.796;3.860;2022-07-29T12:17:58;5.43;;;3.53;;
21270;SDS011;10795;50.796;3.860;2022-07-29T12:20:34;1.73;;;1.42;;
21270;SDS011;10795;50.796;3.860;2022-07-29T12:23:04;7.38;;;3.13;;
21270;SDS011;10795;50.796;3.860;2022-07-29T12:25:33;5.43;;;3.30;;
21270;SDS011;10795;50.796;3.860;2022-07-29T12:28:01;5.65;;;3.40;;
21270;SDS011;10795;50.796;3.860;2022-07-29T12:30:36;4.13;;;2.30;;
21270;SDS011;10795;50.796;3.860;2022-07-29T12:35:45;6.43;;;3.05;;
21270;SDS011;10795;50.796;3.860;2022-07-29T12:38:16;3.63;;;2.25;;
21270;SDS011;10795;50.796;3.860;2022-07-29T12:40:42;2.40;;;1.58;;
21270;SDS011;10795;50.796;3.860;2022-07-29T12:43:10;2.47;;;2.05;;
21270;SDS011;10795;50.796;3.860;2022-07-29T12:45:37;3.80;;;2.35;;
21270;SDS011;10795;50.796;3.860;2022-07-29T12:48:04;1.92;;;1.20;;
21270;SDS011;10795;50.796;3.860;2022-07-29T12:50:33;5.95;;;2.40;;
21270;SDS011;10795;50.796;3.860;2022-07-29T12:53:10;5.18;;;1.90;;
21270;SDS011;10795;50.796;3.860;2022-07-29T12:55:37;6.13;;;1.85;;
21270;SDS011;10795;50.796;3.860;2022-07-29T12:58:14;8.25;;;2.40;;
21270;SDS011;10795;50.796;3.860;2022-07-29T13:04:00;3.78;;;1.73;;
21270;SDS011;10795;50.796;3.860;2022-07-29T13:06:40;1.05;;;0.90;;
21270;SDS011;10795;50.796;3.860;2022-07-29T13:09:10;2.35;;;1.45;;
21270;SDS011;10795;50.796;3.860;2022-07-29T13:11:47;3.83;;;1.48;;
21270;SDS011;10795;50.796;3.860;2022-07-29T13:14:31;1.90;;;1.33;;
21270;SDS011;10795;50.796;3.860;2022-07-29T13:19:51;2.67;;;1.00;;
21270;SDS011;10795;50.796;3.860;2022-07-29T13:22:18;2.42;;;1.23;;
21270;SDS011;10795;50.796;3.860;2022-07-29T13:24:45;6.53;;;1.75;;
21270;SDS011;10795;50.796;3.860;2022-07-29T13:27:19;3.92;;;1.50;;
21270;SDS011;10795;50.796;3.860;2022-07-29T13:29:46;4.13;;;1.25;;
21270;SDS011;10795;50.796;3.860;2022-07-29T13:32:13;6.60;;;1.10;;
21270;SDS011;10795;50.796;3.860;2022-07-29T13:34:39;4.65;;;1.15;;
21270;SDS011;10795;50.796;3.860;2022-07-29T13:37:06;2.17;;;1.20;;
21270;SDS011;10795;50.796;3.860;2022-07-29T13:39:31;2.90;;;1.17;;
21270;SDS011;10795;50.796;3.860;2022-07-29T13:41:57;5.03;;;1.42;;
21270;SDS011;10795;50.796;3.860;2022-07-29T13:44:23;3.80;;;1.25;;
21270;SDS011;10795;50.796;3.860;2022-07-29T13:46:49;3.55;;;1.17;;
21270;SDS011;10795;50.796;3.860;2022-07-29T13:49:15;3.55;;;1.10;;
21270;SDS011;10795;50.796;3.860;2022-07-29T13:51:41;3.72;;;1.05;;
21270;SDS011;10795;50.796;3.860;2022-07-29T13:54:06;1.20;;;0.93;;
21270;SDS011;10795;50.796;3.860;2022-07-29T13:56:32;3.15;;;1.23;;
21270;SDS011;10795;50.796;3.860;2022-07-29T13:58:58;1.95;;;0.95;;
21270;SDS011;10795;50.796;3.860;2022-07-29T14:01:23;3.35;;;1.27;;
21270;SDS011;10795;50.796;3.860;2022-07-29T14:03:50;3.42;;;1.27;;
21270;SDS011;10795;50.796;3.860;2022-07-29T14:06:15;5.40;;;1.10;;
21270;SDS011;10795;50.796;3.860;2022-07-29T14:08:41;3.78;;;1.10;;
21270;SDS011;10795;50.796;3.860;2022-07-29T14:11:08;8.98;;;1.35;;
21270;SDS011;10795;50.796;3.860;2022-07-29T14:13:33;2.33;;;1.38;;
21270;SDS011;10795;50.796;3.860;2022-07-29T14:15:59;2.88;;;0.80;;
21270;SDS011;10795;50.796;3.860;2022-07-29T14:18:25;1.92;;;0.95;;
21270;SDS011;10795;50.796;3.860;2022-07-29T14:20:51;4.53;;;1.60;;
21270;SDS011;10795;50.796;3.860;2022-07-29T14:23:17;3.58;;;1.15;;
21270;SDS011;10795;50.796;3.860;2022-07-29T14:25:43;3.63;;;0.95;;
21270;SDS011;10795;50.796;3.860;2022-07-29T14:28:09;4.80;;;1.30;;
21270;SDS011;10795;50.796;3.860;2022-07-29T14:30:34;1.85;;;1.20;;
21270;SDS011;10795;50.796;3.860;2022-07-29T14:33:00;2.95;;;1.20;;
21270;SDS011;10795;50.796;3.860;2022-07-29T14:35:26;3.08;;;1.35;;
21270;SDS011;10795;50.796;3.860;2022-07-29T14:37:53;5.70;;;1.10;;
21270;SDS011;10795;50.796;3.860;2022-07-29T14:40:18;2.30;;;1.17;;
21270;SDS011;10795;50.796;3.860;2022-07-29T14:42:44;3.67;;;1.05;;
21270;SDS011;10795;50.796;3.860;2022-07-29T14:45:10;1.17;;;0.73;;
21270;SDS011;10795;50.796;3.860;2022-07-29T14:47:36;2.13;;;1.23;;
21270;SDS011;10795;50.796;3.860;2022-07-29T14:50:03;6.05;;;1.42;;
21270;SDS011;10795;50.796;3.860;2022-07-29T14:52:30;1.80;;;1.02;;
21270;SDS011;10795;50.796;3.860;2022-07-29T14:54:55;4.20;;;1.42;;
21270;SDS011;10795;50.796;3.860;2022-07-29T14:57:21;4.82;;;1.13;;
21270;SDS011;10795;50.796;3.860;2022-07-29T14:59:47;3.67;;;1.40;;
21270;SDS011;10795;50.796;3.860;2022-07-29T15:02:13;2.53;;;1.20;;
21270;SDS011;10795;50.796;3.860;2022-07-29T15:04:39;2.63;;;1.42;;
21270;SDS011;10795;50.796;3.860;2022-07-29T15:07:04;4.93;;;1.40;;
21270;SDS011;10795;50.796;3.860;2022-07-29T15:09:30;1.80;;;1.00;;
21270;SDS011;10795;50.796;3.860;2022-07-29T15:11:56;2.53;;;1.10;;
21270;SDS011;10795;50.796;3.860;2022-07-29T15:14:22;2.75;;;1.33;;
21270;SDS011;10795;50.796;3.860;2022-07-29T15:16:47;3.58;;;1.00;;
21270;SDS011;10795;50.796;3.860;2022-07-29T15:19:13;5.53;;;1.50;;
21270;SDS011;10795;50.796;3.860;2022-07-29T15:21:39;3.42;;;1.52;;
21270;SDS011;10795;50.796;3.860;2022-07-29T15:24:05;1.98;;;1.20;;
21270;SDS011;10795;50.796;3.860;2022-07-29T15:26:32;5.13;;;0.98;;
21270;SDS011;10795;50.796;3.860;2022-07-29T15:28:58;4.55;;;1.50;;
21270;SDS011;10795;50.796;3.860;2022-07-29T15:31:24;2.45;;;1.25;;
21270;SDS011;10795;50.796;3.860;2022-07-29T15:33:50;2.33;;;1.25;;
21270;SDS011;10795;50.796;3.860;2022-07-29T15:36:16;1.73;;;1.00;;
21270;SDS011;10795;50.796;3.860;2022-07-29T15:38:41;3.47;;;1.40;;
21270;SDS011;10795;50.796;3.860;2022-07-29T15:41:09;1.20;;;0.80;;
21270;SDS011;10795;50.796;3.860;2022-07-29T15:46:07;2.15;;;1.05;;
21270;SDS011;10795;50.796;3.860;2022-07-29T15:48:52;2.25;;;1.05;;
21270;SDS011;10795;50.796;3.860;2022-07-29T15:51:17;4.78;;;1.50;;
21270;SDS011;10795;50.796;3.860;2022-07-29T15:53:43;5.88;;;1.77;;
21270;SDS011;10795;50.796;3.860;2022-07-29T15:56:09;6.85;;;1.42;;
21270;SDS011;10795;50.796;3.860;2022-07-29T15:58:35;7.05;;;1.70;;
21270;SDS011;10795;50.796;3.860;2022-07-29T16:01:00;2.95;;;1.45;;